createdAt,value
2022-11-08T00:09:32.719Z,84.83
2022-11-08T00:19:36.709Z,87.73
2022-11-08T00:29:42.122Z,87.40
2022-11-08T00:39:45.986Z,85.60
2022-11-08T00:49:51.355Z,84.90
2022-11-08T00:59:55.121Z,84.53
2022-11-08T01:10:01.706Z,86.27
2022-11-08T01:20:08.399Z,84.67
2022-11-08T01:30:14.261Z,85.00
2022-11-08T01:40:18.239Z,83.50
2022-11-08T01:50:23.955Z,85.27
2022-11-08T02:00:27.973Z,86.13
2022-11-08T02:10:36.598Z,82.67
2022-11-08T02:20:47.914Z,83.83
2022-11-08T02:30:53.263Z,82.63
2022-11-08T02:40:58.925Z,83.23
2022-11-08T02:51:04.372Z,84.23
2022-11-08T03:01:08.504Z,82.40
2022-11-08T03:11:13.744Z,84.93
2022-11-08T03:21:17.625Z,84.37
2022-11-08T03:31:22.883Z,87.30
2022-11-08T03:41:26.770Z,85.00
2022-11-08T03:51:31.918Z,84.70
2022-11-08T04:01:35.839Z,87.93
2022-11-08T04:12:00.904Z,86.67
2022-11-08T04:22:05.189Z,85.37
2022-11-08T04:32:10.366Z,88.40
2022-11-08T04:42:14.108Z,86.83
2022-11-08T04:52:19.201Z,83.07
2022-11-08T05:02:23.094Z,84.93
2022-11-08T05:12:28.442Z,87.37
2022-11-08T05:22:49.858Z,89.63
2022-11-08T05:32:55.044Z,88.80
2022-11-08T05:42:58.919Z,92.20
2022-11-08T05:53:04.237Z,89.57
2022-11-08T06:03:08.425Z,89.07
2022-11-08T06:13:13.619Z,92.30
2022-11-08T06:23:17.634Z,92.03
2022-11-08T06:33:23.410Z,90.27
2022-11-08T06:43:27.330Z,93.67
2022-11-08T06:53:32.883Z,93.80
2022-11-08T07:03:36.943Z,96.50
2022-11-08T07:13:41.777Z,90.23
2022-11-08T07:23:45.440Z,91.10
2022-11-08T07:33:50.368Z,97.33
2022-11-08T07:43:54.109Z,91.10
2022-11-08T07:54:02.952Z,95.47
2022-11-08T08:04:07.436Z,100.20
2022-11-08T08:14:12.573Z,102.77
2022-11-08T08:24:16.440Z,110.90
2022-11-08T08:34:21.356Z,110.95
2022-11-08T08:44:24.928Z,123.88
2022-11-08T08:54:29.993Z,117.20
2022-11-08T09:04:33.654Z,119.68
2022-11-08T09:14:38.669Z,127.72
2022-11-08T09:24:42.938Z,136.20
2022-11-08T09:34:48.112Z,132.95
2022-11-08T09:45:19.882Z,136.00
2022-11-08T09:55:31.703Z,138.27
2022-11-08T10:05:41.632Z,139.18
2022-11-08T10:15:55.534Z,137.27
2022-11-08T10:26:02.473Z,144.23
2022-11-08T10:36:13.614Z,176.80
2022-11-08T10:46:39.845Z,140.48
2022-11-08T10:56:56.902Z,140.90
2022-11-08T11:07:03.533Z,145.93
2022-11-08T11:17:18.263Z,142.57
2022-11-08T11:27:26.121Z,147.90
2022-11-08T11:37:41.482Z,131.05
2022-11-08T11:47:49.298Z,129.95
2022-11-08T11:58:07.755Z,132.13
2022-11-08T12:08:24.161Z,131.35
2022-11-08T12:19:11.937Z,132.13
2022-11-08T12:29:25.209Z,129.45
2022-11-08T12:39:36.958Z,130.23
2022-11-08T12:49:52.641Z,136.38
2022-11-08T13:00:06.359Z,129.20
2022-11-08T13:10:23.081Z,129.75
2022-11-08T13:20:42.283Z,130.38
2022-11-08T13:30:46.296Z,132.18
2022-11-08T13:41:17.297Z,125.70
2022-11-08T13:51:29.984Z,124.07
2022-11-08T14:02:03.357Z,126.55
2022-11-08T14:12:12.544Z,122.93
2022-11-08T14:22:21.988Z,129.13
2022-11-08T14:32:25.647Z,124.37
2022-11-08T14:42:30.908Z,109.40
2022-11-08T14:52:34.891Z,105.77
2022-11-08T15:02:42.690Z,100.87
2022-11-08T15:12:46.477Z,113.07
2022-11-08T15:22:56.334Z,110.00
2022-11-08T15:33:00.382Z,98.30
2022-11-08T15:43:05.744Z,92.83
2022-11-08T15:53:10.233Z,90.23
2022-11-08T16:03:15.487Z,98.10
2022-11-08T16:13:23.668Z,89.13
2022-11-08T16:23:28.780Z,85.60
2022-11-08T16:33:34.947Z,89.37
2022-11-08T16:43:40.045Z,83.67
2022-11-08T16:53:43.830Z,84.70
2022-11-08T17:03:50.757Z,86.80
2022-11-08T17:13:55.376Z,87.43
2022-11-08T17:24:01.068Z,90.20
2022-11-08T17:34:05.090Z,98.70
2022-11-08T17:44:10.946Z,104.47
2022-11-08T17:54:14.690Z,91.13
2022-11-08T18:04:19.863Z,100.13
2022-11-08T18:14:28.632Z,89.80
2022-11-08T18:24:34.387Z,106.80
2022-11-08T18:34:38.162Z,90.83
2022-11-08T18:44:43.159Z,93.30
2022-11-08T18:54:48.584Z,102.97
2022-11-08T19:04:53.615Z,107.57
2022-11-08T19:14:57.275Z,92.73
2022-11-08T19:25:02.209Z,98.40
2022-11-08T19:35:07.034Z,91.73
2022-11-08T19:45:15.668Z,90.70
2022-11-08T19:55:21.738Z,91.17
2022-11-08T20:05:28.731Z,86.50
2022-11-08T20:15:32.556Z,91.73
2022-11-08T20:25:37.805Z,94.67
2022-11-08T20:35:41.394Z,99.90
2022-11-08T20:45:47.595Z,100.77
2022-11-08T20:55:58.363Z,96.60
2022-11-08T21:06:06.237Z,97.20
2022-11-08T21:16:28.561Z,98.13
2022-11-08T21:26:36.446Z,96.83
2022-11-08T21:36:40.618Z,92.53
2022-11-08T21:46:46.086Z,91.60
2022-11-08T21:56:49.837Z,96.10
2022-11-08T22:06:54.892Z,92.77
2022-11-08T22:16:58.678Z,91.03
2022-11-08T22:27:04.088Z,95.43
2022-11-08T22:37:08.245Z,98.87
2022-11-08T22:47:13.617Z,94.90
2022-11-08T22:57:17.545Z,92.73
2022-11-08T23:07:22.652Z,91.07
2022-11-08T23:17:26.428Z,96.87
2022-11-08T23:27:49.439Z,94.37
2022-11-08T23:37:53.544Z,97.50
2022-11-08T23:47:58.916Z,95.70
2022-11-08T23:58:02.684Z,94.93
